»·PEaware :: N415CS KPSP-KPSP

N415CS :: KPSP-KPSP

FLIGHT INFORMATION

Flight Status: Arrived
Operator: Privately registered:
United States
More flights under this callsign
Pilot: Henderson P. (1210)
Aircraft: CESSNA 182 SKYLANE
(C182)
More flights by this aircraft type
Origin: KPSP Palm Springs Intl
United States
Destination: KPSP Palm Springs Intl
United States
More flights between these airports :: More routes between these airports
Route: +
File this flight plan on PilotEdge
Remarks: nffs
Altitude:
(Current/Filed)
0ft
Speed:
(Current/Filed)
0kts
Departed: 10-Aug-18 07:51 AM
Arrived: 10-Aug-18 08:35 AM
Distance/Time
Traveled:
0nm/0:44
Distance/Time
To Go:
Arrived

Flight Plot

Page will automatically refresh every two minutes.


Map Options




Map Legend


Flown Route
Filed Route
Departure Airport
Arrival Airport
Navaid (VOR, NDB)
Fix

Horizontal Profiles

Position Reports

Time Latitude Longitude Heading Altitude Ground
Speed
10-Aug-18 07:47 33.823431 -116.498036 324 480ft 9kts
10-Aug-18 07:48 33.824591 -116.499091 325 480ft 0kts
10-Aug-18 07:49 33.824596 -116.499095 325 480ft 0kts
10-Aug-18 07:50 33.824599 -116.499097 325 480ft 0kts
10-Aug-18 07:51 33.824624 -116.499619 234 480ft 0kts
10-Aug-18 07:52 33.834947 -116.509453 326 718ft 97kts
10-Aug-18 07:53 33.858173 -116.522435 33 1484ft 94kts
10-Aug-18 07:54 33.864378 -116.496294 137 2284ft 92kts
10-Aug-18 07:55 33.844670 -116.477127 143 3098ft 90kts
10-Aug-18 07:56 33.821359 -116.476908 191 3896ft 85kts
10-Aug-18 07:57 33.797594 -116.482045 191 4717ft 97kts
10-Aug-18 07:58 33.771507 -116.500555 221 5708ft 124kts
10-Aug-18 07:59 33.741112 -116.522826 190 6486ft 147kts
10-Aug-18 08:00 33.700307 -116.531621 191 6497ft 144kts
10-Aug-18 08:01 33.659112 -116.533930 181 6519ft 154kts
10-Aug-18 08:02 33.626546 -116.560946 240 6524ft 164kts
10-Aug-18 08:03 33.605145 -116.606169 239 6548ft 150kts
10-Aug-18 08:04 33.583924 -116.649215 239 6115ft 153kts
10-Aug-18 08:05 33.562806 -116.692424 239 5637ft 148kts
10-Aug-18 08:06 33.541180 -116.736715 240 5158ft 155kts
10-Aug-18 08:07 33.520355 -116.780947 241 4651ft 152kts
10-Aug-18 08:09 33.456368 -116.820200 191 3761ft 152kts
10-Aug-18 08:10 33.424510 -116.831323 161 2829ft 91kts
10-Aug-18 08:11 33.410633 -116.823685 330 2443ft 3kts
10-Aug-18 08:12 33.410641 -116.823690 330 2443ft 0kts
10-Aug-18 08:13 33.410643 -116.823691 330 2443ft 0kts
10-Aug-18 08:14 33.410646 -116.823693 330 2443ft 0kts
10-Aug-18 08:15 33.414834 -116.826300 331 2432ft 60kts
10-Aug-18 08:16 33.430682 -116.837579 333 2655ft 80kts
10-Aug-18 08:17 33.450262 -116.831237 47 3192ft 82kts
10-Aug-18 08:18 33.457346 -116.806776 76 3779ft 77kts
10-Aug-18 08:19 33.466689 -116.782481 42 4234ft 87kts
10-Aug-18 08:20 33.483761 -116.764195 48 4795ft 77kts
10-Aug-18 08:21 33.498866 -116.752839 31 4916ft 73kts
10-Aug-18 08:22 33.520808 -116.733071 51 5302ft 94kts
10-Aug-18 08:23 33.537380 -116.706911 52 5695ft 103kts
10-Aug-18 08:24 33.552281 -116.683022 51 6025ft 109kts
10-Aug-18 08:25 33.572086 -116.653161 51 6417ft 130kts
10-Aug-18 08:26 33.598560 -116.613784 51 6838ft 123kts
10-Aug-18 08:27 33.614327 -116.586769 72 7106ft 120kts
10-Aug-18 08:28 33.624875 -116.546931 73 6455ft 120kts
10-Aug-18 08:29 33.640564 -116.518915 34 5457ft 100kts
10-Aug-18 08:30 33.674406 -116.509227 11 4517ft 153kts
10-Aug-18 08:31 33.716974 -116.506158 21 3911ft 150kts
10-Aug-18 08:32 33.749326 -116.482515 25 3150ft 122kts
10-Aug-18 08:33 33.781535 -116.472545 2 1607ft 113kts
10-Aug-18 08:34 33.808834 -116.486330 323 966ft 92kts
10-Aug-18 08:35 33.825595 -116.501180 325 480ft 54kts
10-Aug-18 08:36 33.827172 -116.500560 52 480ft 6kts
10-Aug-18 08:37 33.827303 -116.500379 48 480ft 0kts

Navigation Log

Ident Type
Flight plan parsing failed, navigation log unavailable